Time;durP1;ratioP1;P1;durP2;ratioP2;P2;SDS_P1;SDS_P2;PMS_P1;PMS_P2;Temp;Humidity;BMP_temperature;BMP_pressure;BME280_temperature;BME280_humidity;BME280_pressure;Samples;Min_cycle;Max_cycle;Signal;HPM_P1;HPM_P2
2023/01/26 00:00:59;;;;;;;5.20;3.83;;;22.00;56.70;;;;;;5116649;28;20211;-60
2023/01/26 00:03:49;;;;;;;5.03;3.50;;;22.20;60.10;;;;;;5116068;28;20282;-59
2023/01/26 00:06:37;;;;;;;5.22;3.67;;;22.10;56.60;;;;;;5116633;28;20195;-60
2023/01/26 00:09:25;;;;;;;5.47;3.75;;;22.20;56.60;;;;;;5116524;28;20244;-59
2023/01/26 00:12:13;;;;;;;4.70;3.22;;;22.20;56.50;;;;;;5114985;28;20199;-60
2023/01/26 00:15:01;;;;;;;4.25;3.42;;;22.20;56.40;;;;;;5114962;28;20298;-60
2023/01/26 00:17:50;;;;;;;4.75;4.03;;;22.20;56.40;;;;;;5115454;28;20324;-59
2023/01/26 00:20:40;;;;;;;6.50;4.10;;;22.20;56.20;;;;;;5115999;28;20207;-60
2023/01/26 00:23:29;;;;;;;4.22;3.05;;;22.20;56.30;;;;;;5115035;28;20195;-60
2023/01/26 00:26:21;;;;;;;5.63;4.38;;;22.20;56.40;;;;;;5115151;28;20741;-60
2023/01/26 00:29:09;;;;;;;5.32;3.85;;;22.10;56.20;;;;;;5116264;28;20570;-60
2023/01/26 00:31:57;;;;;;;5.13;4.03;;;22.10;56.30;;;;;;5114631;28;20211;-60
2023/01/26 00:34:45;;;;;;;6.40;4.38;;;22.00;56.20;;;;;;5116071;28;20223;-60
2023/01/26 00:37:34;;;;;;;4.85;4.18;;;22.00;56.20;;;;;;5114429;28;20284;-60
2023/01/26 00:40:22;;;;;;;6.63;3.90;;;22.00;56.30;;;;;;5115305;28;20222;-60
2023/01/26 00:43:10;;;;;;;5.05;3.83;;;22.00;56.40;;;;;;5114734;28;20217;-60
2023/01/26 00:45:58;;;;;;;5.03;3.60;;;21.90;56.30;;;;;;5116002;28;20219;-60
2023/01/26 00:48:46;;;;;;;5.32;4.10;;;21.90;56.30;;;;;;5113652;28;20565;-60
2023/01/26 00:51:34;;;;;;;4.38;3.80;;;21.90;56.30;;;;;;5115141;28;20195;-60
2023/01/26 00:54:24;;;;;;;6.55;4.45;;;21.90;56.40;;;;;;5115567;28;20709;-59
2023/01/26 00:57:12;;;;;;;4.97;3.60;;;21.90;56.60;;;;;;5115843;28;20333;-60
2023/01/26 01:00:00;;;;;;;5.82;4.40;;;21.90;56.50;;;;;;5114886;28;20227;-59
2023/01/26 01:02:48;;;;;;;4.97;3.70;;;22.00;56.50;;;;;;5115373;28;20203;-59
2023/01/26 01:05:36;;;;;;;5.32;4.13;;;22.00;56.40;;;;;;5114105;28;20650;-60
2023/01/26 01:08:24;;;;;;;7.45;4.35;;;22.00;56.40;;;;;;5115570;28;20282;-60
2023/01/26 01:11:13;;;;;;;5.80;4.15;;;22.00;56.90;;;;;;5114596;28;20196;-60
2023/01/26 01:14:01;;;;;;;4.85;3.78;;;22.00;56.30;;;;;;5115871;28;20247;-60
2023/01/26 01:16:49;;;;;;;7.28;4.63;;;22.00;56.30;;;;;;5114850;28;20223;-60
2023/01/26 01:19:37;;;;;;;5.85;4.55;;;22.00;56.30;;;;;;5114831;28;20296;-60
2023/01/26 01:22:25;;;;;;;5.90;4.38;;;22.00;56.30;;;;;;5114064;28;20683;-60
2023/01/26 01:25:14;;;;;;;5.70;4.00;;;22.00;56.30;;;;;;5115530;28;20219;-59
2023/01/26 01:28:03;;;;;;;5.68;4.10;;;22.00;56.30;;;;;;5114660;28;20286;-60
2023/01/26 01:30:51;;;;;;;6.85;4.80;;;22.00;56.30;;;;;;5114349;28;20197;-60
2023/01/26 01:33:40;;;;;;;5.93;3.90;;;22.10;56.10;;;;;;5114058;28;20203;-60
2023/01/26 01:36:30;;;;;;;4.43;3.53;;;22.00;56.30;;;;;;5115561;28;20296;-60
2023/01/26 01:39:18;;;;;;;6.20;4.07;;;22.10;56.30;;;;;;5113585;28;20218;-61
2023/01/26 01:42:06;;;;;;;5.68;4.20;;;22.00;56.20;;;;;;5115022;28;20681;-59
2023/01/26 01:45:36;;;;;;;5.47;4.25;;;22.00;56.10;;;;;;5113683;28;20324;-60
2023/01/26 01:48:28;;;;;;;5.38;3.90;;;22.00;56.10;;;;;;5114021;28;20597;-59
2023/01/26 01:51:20;;;;;;;8.32;5.00;;;22.00;56.00;;;;;;5114162;28;20664;-60
2023/01/26 01:54:11;;;;;;;4.10;3.70;;;22.10;56.20;;;;;;5112731;28;20211;-60
2023/01/26 01:57:05;;;;;;;5.75;4.18;;;22.00;56.20;;;;;;5114984;28;20195;-60
2023/01/26 01:59:59;;;;;;;5.57;4.15;;;22.00;56.40;;;;;;5113476;28;20673;-60
2023/01/26 02:03:09;;;;;;;4.80;3.72;;;22.10;56.30;;;;;;5113709;28;20572;-59
2023/01/26 02:06:03;;;;;;;5.05;4.00;;;22.00;56.30;;;;;;5113583;28;20219;-60
2023/01/26 02:08:53;;;;;;;7.32;3.95;;;22.00;56.20;;;;;;5113520;28;20203;-59
2023/01/26 02:11:45;;;;;;;5.30;3.80;;;22.00;56.30;;;;;;5113648;28;20199;-60
2023/01/26 02:14:33;;;;;;;6.13;3.55;;;22.00;56.30;;;;;;5113033;28;20470;-61
2023/01/26 02:17:21;;;;;;;5.78;3.53;;;22.00;56.20;;;;;;5114232;28;20735;-60
2023/01/26 02:20:18;;;;;;;5.20;4.25;;;22.00;56.10;;;;;;5113763;28;20304;-59
2023/01/26 02:23:17;;;;;;;8.48;5.28;;;22.10;56.10;;;;;;5110661;27;20195;-59
2023/01/26 02:26:11;;;;;;;5.93;4.45;;;22.10;56.20;;;;;;5094379;28;20246;-59
2023/01/26 02:28:59;;;;;;;5.63;4.25;;;22.00;56.00;;;;;;5093720;28;20203;-59
2023/01/26 02:31:48;;;;;;;5.60;4.05;;;22.00;56.10;;;;;;5094014;28;20248;-61
2023/01/26 02:34:36;;;;;;;5.20;4.15;;;22.10;56.10;;;;;;5092349;28;20228;-60
2023/01/26 02:37:24;;;;;;;5.70;3.90;;;22.00;56.00;;;;;;5093794;28;20200;-60
2023/01/26 02:40:21;;;;;;;7.07;4.50;;;22.00;56.10;;;;;;5093633;28;20706;-59
2023/01/26 02:43:10;;;;;;;6.32;3.78;;;22.00;56.00;;;;;;5092980;28;20246;-59
2023/01/26 02:45:58;;;;;;;4.95;3.83;;;22.00;56.00;;;;;;5092627;28;20780;-59
2023/01/26 02:51:52;;;;;;;4.55;4.10;;;22.10;56.10;;;;;;5092782;28;20218;-61
2023/01/26 02:57:46;;;;;;;5.70;4.20;;;22.10;55.90;;;;;;5092417;28;20286;-60
2023/01/26 03:00:37;;;;;;;5.25;4.05;;;22.10;56.00;;;;;;5093268;28;20219;-60
2023/01/26 03:03:40;;;;;;;4.28;3.38;;;22.00;55.90;;;;;;5093484;28;20696;-60
2023/01/26 03:06:28;;;;;;;4.70;3.20;;;22.00;55.80;;;;;;5093540;28;20199;-59
2023/01/26 03:09:16;;;;;;;4.72;3.17;;;21.90;55.70;;;;;;5092796;28;20200;-59
2023/01/26 03:12:05;;;;;;;4.32;3.53;;;21.90;56.60;;;;;;5095748;28;20196;-60
2023/01/26 03:15:33;;;;;;;6.00;4.05;;;21.90;55.90;;;;;;5096265;28;20795;-60
2023/01/26 03:27:25;;;;;;;5.07;3.28;;;21.90;56.00;;;;;;5097070;28;20278;-60
2023/01/26 03:27:39;;;;;;;4.50;3.17;;;21.90;55.90;;;;;;5096246;28;20199;-59
2023/01/26 03:30:27;;;;;;;3.65;2.78;;;21.80;56.00;;;;;;5095513;28;20275;-60
2023/01/26 03:33:18;;;;;;;5.43;3.78;;;21.90;56.10;;;;;;5096479;28;20254;-60
2023/01/26 03:36:06;;;;;;;5.55;3.60;;;21.90;55.90;;;;;;5098089;28;20245;-60
2023/01/26 03:38:54;;;;;;;5.07;3.40;;;21.90;56.00;;;;;;5095743;28;20644;-60
2023/01/26 03:57:22;;;;;;;3.33;2.88;;;21.90;55.80;;;;;;5095268;28;20283;-61
2023/01/26 04:00:13;;;;;;;4.75;3.38;;;22.00;55.90;;;;;;5094539;28;20365;-61
2023/01/26 04:09:15;;;;;;;3.72;3.17;;;22.00;55.90;;;;;;5094754;28;20688;-59
2023/01/26 04:12:03;;;;;;;3.38;2.83;;;22.00;55.80;;;;;;5095484;28;20199;-61
2023/01/26 04:24:12;;;;;;;4.65;3.50;;;22.10;55.70;;;;;;5094269;28;20303;-59
2023/01/26 04:27:05;;;;;;;3.42;2.70;;;22.10;55.70;;;;;;5095525;28;20200;-60
2023/01/26 04:29:53;;;;;;;2.60;2.35;;;22.20;55.70;;;;;;5094202;28;20207;-63
2023/01/26 04:32:41;;;;;;;3.97;3.58;;;22.10;55.70;;;;;;5095537;28;20380;-60
2023/01/26 04:35:29;;;;;;;3.28;2.97;;;22.10;55.70;;;;;;5094034;28;20224;-59
2023/01/26 04:38:17;;;;;;;3.95;3.63;;;22.20;55.70;;;;;;5094753;28;20236;-60
2023/01/26 04:41:05;;;;;;;4.45;3.30;;;22.20;55.80;;;;;;5093575;28;20219;-60
2023/01/26 04:43:54;;;;;;;4.18;3.17;;;22.40;59.20;;;;;;5093740;28;20244;-61
2023/01/26 04:46:42;;;;;;;3.15;2.60;;;22.10;55.70;;;;;;5094076;28;20226;-62
2023/01/26 04:49:31;;;;;;;3.00;2.70;;;22.10;55.60;;;;;;5093400;28;20266;-60
2023/01/26 04:52:19;;;;;;;3.55;2.80;;;22.00;55.60;;;;;;5093787;28;20688;-60
2023/01/26 04:55:07;;;;;;;2.85;2.50;;;22.00;55.70;;;;;;5094363;28;20763;-61
2023/01/26 04:57:57;;;;;;;2.72;2.25;;;22.00;55.70;;;;;;5093168;28;20204;-62
2023/01/26 05:00:51;;;;;;;3.65;2.90;;;21.90;55.70;;;;;;5092993;28;20289;-60
2023/01/26 05:03:39;;;;;;;4.57;3.30;;;21.90;55.50;;;;;;5093805;28;20638;-61
2023/01/26 05:06:27;;;;;;;3.65;2.90;;;21.90;55.70;;;;;;5093717;28;20283;-60
2023/01/26 05:09:15;;;;;;;3.42;2.90;;;21.90;55.70;;;;;;5093692;28;20206;-60
2023/01/26 05:15:06;;;;;;;3.33;2.72;;;21.80;55.70;;;;;;5094248;28;20292;-60
2023/01/26 05:17:57;;;;;;;3.03;2.28;;;21.80;55.80;;;;;;5094470;28;20273;-60
2023/01/26 05:20:45;;;;;;;3.35;2.58;;;21.80;55.70;;;;;;5092966;28;20298;-59
2023/01/26 05:23:33;;;;;;;3.65;2.50;;;21.70;55.70;;;;;;5093757;28;20275;-60
2023/01/26 05:26:22;;;;;;;2.70;2.50;;;21.80;55.90;;;;;;5093395;28;20684;-61
2023/01/26 05:29:10;;;;;;;4.38;2.80;;;21.80;55.80;;;;;;5092997;28;20795;-60
2023/01/26 05:31:58;;;;;;;3.38;2.95;;;21.90;55.80;;;;;;5092665;28;20261;-60
2023/01/26 05:34:47;;;;;;;6.88;3.40;;;21.90;55.70;;;;;;5092629;28;20227;-60
2023/01/26 05:37:35;;;;;;;3.70;2.90;;;21.90;55.80;;;;;;5093770;28;20275;-61
2023/01/26 05:40:24;;;;;;;5.68;3.15;;;22.00;55.80;;;;;;5093252;28;20586;-60
2023/01/26 05:43:13;;;;;;;4.50;3.10;;;22.00;55.70;;;;;;5092784;28;20676;-62
2023/01/26 05:46:01;;;;;;;4.00;3.17;;;22.10;55.70;;;;;;5092505;28;20224;-61
2023/01/26 05:48:49;;;;;;;4.40;2.97;;;22.10;55.60;;;;;;5092829;28;20681;-59
2023/01/26 05:51:39;;;;;;;3.00;2.50;;;22.20;55.70;;;;;;5092810;28;20668;-60
2023/01/26 05:54:27;;;;;;;2.70;2.50;;;22.10;55.50;;;;;;5092752;28;20216;-60
2023/01/26 05:57:15;;;;;;;5.05;2.90;;;22.10;55.40;;;;;;5093002;28;20212;-60
2023/01/26 06:00:04;;;;;;;4.15;2.75;;;22.00;55.40;;;;;;5092663;28;20214;-60
2023/01/26 06:02:52;;;;;;;3.40;2.72;;;22.00;55.60;;;;;;5093344;28;20594;-60
2023/01/26 06:05:41;;;;;;;3.05;2.63;;;22.10;55.60;;;;;;5092596;28;20224;-60
2023/01/26 06:08:30;;;;;;;2.65;2.45;;;22.00;55.50;;;;;;5091970;28;20227;-61
2023/01/26 06:11:18;;;;;;;4.15;2.78;;;22.00;55.60;;;;;;5091904;28;20227;-60
2023/01/26 06:14:06;;;;;;;3.28;2.70;;;22.00;55.60;;;;;;5092266;28;20250;-60
2023/01/26 06:16:55;;;;;;;4.85;3.05;;;21.90;55.40;;;;;;5092754;28;20192;-61
2023/01/26 06:19:44;;;;;;;7.00;3.60;;;21.90;55.60;;;;;;5091879;28;20249;-59
2023/01/26 06:22:32;;;;;;;6.72;2.60;;;21.90;55.60;;;;;;5092463;28;20220;-62
2023/01/26 06:25:21;;;;;;;6.78;2.70;;;21.90;55.50;;;;;;5091664;28;20227;-60
2023/01/26 06:28:09;;;;;;;6.75;2.90;;;21.90;55.50;;;;;;5093211;28;20582;-60
2023/01/26 06:31:02;;;;;;;5.28;3.35;;;21.90;55.50;;;;;;5093344;28;20271;-59
2023/01/26 06:33:50;;;;;;;4.45;3.33;;;22.00;58.90;;;;;;5091116;28;20196;-60
2023/01/26 06:36:39;;;;;;;4.30;2.83;;;21.90;55.40;;;;;;5091956;28;20582;-60
2023/01/26 06:39:27;;;;;;;4.00;2.90;;;21.90;55.40;;;;;;5103474;28;20290;-60
2023/01/26 06:42:17;;;;;;;12.10;2.63;;;22.00;55.50;;;;;;5092470;28;20692;-60
2023/01/26 06:45:05;;;;;;;10.05;3.75;;;22.00;55.60;;;;;;5094736;28;20226;-60
2023/01/26 06:47:53;;;;;;;8.27;3.15;;;22.00;55.40;;;;;;5099549;28;20519;-60
2023/01/26 06:50:44;;;;;;;5.53;3.58;;;22.00;55.50;;;;;;5111183;28;20235;-59
2023/01/26 06:53:37;;;;;;;5.20;3.42;;;22.00;55.60;;;;;;5111445;28;20199;-66
2023/01/26 06:56:27;;;;;;;4.63;2.55;;;22.00;55.60;;;;;;5111694;28;20798;-61
2023/01/26 06:59:17;;;;;;;7.60;3.47;;;22.00;55.60;;;;;;5112157;28;20282;-61
2023/01/26 07:02:06;;;;;;;6.63;3.47;;;21.90;55.50;;;;;;5101915;28;20282;-59
2023/01/26 07:04:54;;;;;;;5.88;2.70;;;21.90;55.30;;;;;;5101354;28;20599;-60
2023/01/26 07:07:42;;;;;;;11.35;4.50;;;21.80;55.40;;;;;;5103331;28;20206;-60
2023/01/26 07:10:30;;;;;;;10.18;3.53;;;21.80;55.60;;;;;;5108859;28;20195;-61
2023/01/26 07:13:19;;;;;;;5.40;2.70;;;21.80;55.70;;;;;;5101830;28;20191;-61
2023/01/26 07:16:11;;;;;;;6.65;3.40;;;21.80;55.80;;;;;;5102521;28;20345;-61
2023/01/26 07:18:59;;;;;;;5.47;2.78;;;21.80;55.80;;;;;;5112534;28;20203;-61
2023/01/26 07:21:47;;;;;;;11.88;2.90;;;21.80;55.90;;;;;;5112518;28;20735;-61
2023/01/26 07:24:35;;;;;;;10.40;2.92;;;21.80;56.30;;;;;;5112308;28;20274;-61
2023/01/26 07:27:23;;;;;;;10.77;3.45;;;21.90;56.20;;;;;;5092064;28;20674;-61
2023/01/26 07:30:13;;;;;;;13.18;4.90;;;22.00;55.80;;;;;;5090478;28;20278;-61
2023/01/26 07:33:03;;;;;;;37.90;7.68;;;22.00;55.50;;;;;;5106884;28;20280;-61
2023/01/26 07:35:52;;;;;;;66.90;9.93;;;22.10;55.50;;;;;;5112898;28;20632;-61
2023/01/26 07:38:41;;;;;;;41.10;7.53;;;22.00;55.40;;;;;;5105446;28;20284;-61
2023/01/26 07:41:29;;;;;;;22.30;6.10;;;22.00;55.30;;;;;;5104074;28;20581;-60
2023/01/26 07:44:17;;;;;;;11.73;3.90;;;22.00;55.20;;;;;;5105885;28;20224;-61
2023/01/26 07:47:05;;;;;;;11.25;3.75;;;22.00;55.30;;;;;;5107424;28;20187;-64
2023/01/26 07:49:55;;;;;;;17.42;3.65;;;22.00;55.30;;;;;;5108531;28;20698;-63
2023/01/26 07:52:43;;;;;;;8.55;3.47;;;22.00;55.30;;;;;;5094965;28;20279;-62
2023/01/26 07:55:31;;;;;;;14.05;3.58;;;22.00;55.40;;;;;;5096888;28;20269;-63
2023/01/26 07:58:20;;;;;;;6.22;3.22;;;22.00;55.60;;;;;;5113551;28;20671;-62
2023/01/26 08:01:10;;;;;;;5.38;2.55;;;22.00;55.70;;;;;;5115693;28;20245;-63
2023/01/26 08:03:58;;;;;;;11.52;3.40;;;21.90;55.60;;;;;;5115567;28;20737;-61
2023/01/26 08:06:50;;;;;;;11.07;3.08;;;21.90;55.60;;;;;;5114824;28;20203;-63
2023/01/26 08:09:38;;;;;;;7.60;2.67;;;21.90;55.70;;;;;;5106407;28;20207;-62
2023/01/26 08:12:27;;;;;;;9.27;2.90;;;22.00;55.80;;;;;;5096596;28;20196;-61
2023/01/26 08:15:15;;;;;;;6.07;2.75;;;21.90;55.70;;;;;;5095665;28;20276;-61
2023/01/26 08:18:03;;;;;;;8.38;2.70;;;21.90;55.80;;;;;;5103021;28;20207;-62
2023/01/26 08:20:53;;;;;;;10.65;2.50;;;22.00;56.00;;;;;;5114677;28;20617;-63
2023/01/26 08:23:42;;;;;;;5.68;2.70;;;22.10;55.70;;;;;;5097639;28;20307;-62
2023/01/26 08:26:32;;;;;;;12.60;3.35;;;22.00;56.00;;;;;;5108141;28;20213;-63
2023/01/26 08:29:20;;;;;;;6.03;2.83;;;22.00;55.90;;;;;;5094566;28;20204;-69
2023/01/26 08:32:08;;;;;;;6.43;3.35;;;22.00;55.90;;;;;;5102521;28;20286;-63
2023/01/26 08:34:56;;;;;;;5.60;2.10;;;22.00;55.80;;;;;;5110416;28;20284;-63
2023/01/26 08:37:44;;;;;;;2.67;2.17;;;21.90;55.70;;;;;;5114669;28;20214;-64
2023/01/26 08:40:34;;;;;;;3.15;2.45;;;21.90;55.70;;;;;;5093743;28;20203;-63
2023/01/26 08:43:22;;;;;;;7.60;2.90;;;21.80;55.80;;;;;;5112891;28;20240;-62
2023/01/26 08:46:10;;;;;;;8.73;2.67;;;21.80;55.90;;;;;;5115154;28;20205;-63
2023/01/26 08:48:58;;;;;;;5.18;3.15;;;21.90;56.00;;;;;;5108723;28;20257;-62
2023/01/26 08:51:47;;;;;;;3.78;3.10;;;21.90;56.10;;;;;;5108286;28;20206;-62
2023/01/26 08:54:35;;;;;;;6.05;2.15;;;21.90;56.00;;;;;;5114916;28;20217;-62
2023/01/26 08:57:25;;;;;;;6.05;3.03;;;21.90;56.00;;;;;;5114199;28;20260;-65
2023/01/26 09:00:14;;;;;;;5.85;2.78;;;21.90;55.90;;;;;;5115565;28;20240;-63
2023/01/26 09:03:05;;;;;;;19.83;4.28;;;21.90;56.00;;;;;;5109943;28;20747;-63
2023/01/26 09:05:53;;;;;;;7.68;3.40;;;22.00;56.10;;;;;;5112565;28;20219;-61
2023/01/26 09:08:41;;;;;;;8.98;3.08;;;22.00;56.00;;;;;;5114806;28;20206;-61
2023/01/26 09:11:30;;;;;;;7.68;2.95;;;22.00;55.90;;;;;;5113583;28;20278;-65
2023/01/26 09:14:20;;;;;;;5.95;3.20;;;22.00;56.00;;;;;;5100363;28;20794;-63
2023/01/26 09:17:08;;;;;;;7.45;2.65;;;22.10;56.00;;;;;;5097082;28;20290;-62
2023/01/26 09:19:56;;;;;;;4.97;2.78;;;22.10;55.80;;;;;;5105810;27;20209;-63
2023/01/26 09:22:44;;;;;;;10.10;3.63;;;22.10;55.80;;;;;;5111596;28;20229;-63
2023/01/26 09:25:35;;;;;;;6.72;2.53;;;22.00;55.80;;;;;;5114230;28;20326;-64
2023/01/26 09:28:23;;;;;;;4.95;2.60;;;22.00;55.80;;;;;;5114380;28;20250;-63
2023/01/26 09:31:13;;;;;;;3.95;2.60;;;22.00;55.90;;;;;;5113772;28;20231;-63
2023/01/26 09:34:01;;;;;;;6.88;2.65;;;22.00;55.80;;;;;;5113490;28;20219;-63
2023/01/26 09:36:49;;;;;;;6.75;2.90;;;22.00;55.90;;;;;;5114933;27;20252;-64
2023/01/26 09:39:37;;;;;;;8.05;2.47;;;22.00;55.90;;;;;;5106001;28;20203;-63
2023/01/26 09:42:35;;;;;;;4.43;2.72;;;21.90;55.90;;;;;;5097208;28;20203;-63
2023/01/26 09:45:29;;;;;;;6.95;3.17;;;21.90;56.00;;;;;;5113965;28;20207;-63
2023/01/26 09:48:31;;;;;;;4.13;2.47;;;21.90;56.20;;;;;;5114025;28;20196;-63
2023/01/26 09:51:23;;;;;;;7.53;2.80;;;21.90;56.20;;;;;;5114020;28;20206;-63
2023/01/26 09:54:22;;;;;;;4.35;2.70;;;21.90;56.20;;;;;;5113285;28;20211;-63
2023/01/26 09:57:13;;;;;;;4.03;2.28;;;21.90;56.30;;;;;;5101613;28;20605;-63
2023/01/26 10:00:08;;;;;;;5.22;2.75;;;22.00;56.30;;;;;;5105324;28;20206;-61
2023/01/26 10:03:08;;;;;;;4.13;2.65;;;22.00;56.20;;;;;;5102889;28;20273;-63
2023/01/26 10:06:04;;;;;;;4.15;2.47;;;22.00;56.00;;;;;;5102862;28;20219;-63
2023/01/26 10:08:54;;;;;;;8.70;2.70;;;22.00;56.00;;;;;;5104879;28;20193;-63
2023/01/26 10:11:46;;;;;;;6.53;2.95;;;22.10;56.10;;;;;;5104906;28;20202;-63
2023/01/26 10:14:39;;;;;;;7.07;2.50;;;22.10;56.60;;;;;;5112340;28;20242;-63
2023/01/26 10:17:32;;;;;;;5.22;2.67;;;22.00;55.80;;;;;;5113416;28;20203;-63
2023/01/26 10:20:27;;;;;;;4.82;2.25;;;22.10;55.90;;;;;;5113196;28;20235;-63
2023/01/26 10:23:22;;;;;;;5.60;2.75;;;22.10;55.90;;;;;;5112878;28;20234;-63
2023/01/26 10:26:14;;;;;;;6.05;2.40;;;22.00;55.80;;;;;;5113239;28;20229;-63
2023/01/26 10:29:03;;;;;;;6.75;2.30;;;21.90;55.70;;;;;;5114726;28;20581;-63
2023/01/26 10:31:51;;;;;;;9.55;2.72;;;21.90;55.90;;;;;;5115580;28;20566;-63
2023/01/26 10:34:41;;;;;;;5.03;2.78;;;21.90;55.80;;;;;;5115694;28;20215;-64
2023/01/26 10:37:30;;;;;;;7.60;2.58;;;21.90;56.10;;;;;;5095725;28;20196;-63
2023/01/26 10:40:20;;;;;;;8.57;3.00;;;21.80;56.00;;;;;;5102781;28;20569;-63
2023/01/26 10:43:17;;;;;;;3.60;2.80;;;21.80;56.10;;;;;;5115147;28;20688;-63
2023/01/26 10:46:06;;;;;;;5.25;2.63;;;21.80;56.20;;;;;;5113356;28;20282;-64
2023/01/26 10:48:55;;;;;;;7.47;3.03;;;21.90;56.20;;;;;;5110091;28;20257;-63
2023/01/26 10:51:45;;;;;;;7.38;2.67;;;21.80;56.10;;;;;;5102834;28;20552;-64
2023/01/26 10:54:35;;;;;;;3.22;1.90;;;21.90;56.10;;;;;;5112675;28;20287;-63
2023/01/26 10:57:28;;;;;;;3.55;1.92;;;21.90;56.10;;;;;;5102957;28;20232;-63
2023/01/26 11:00:23;;;;;;;4.38;2.42;;;22.00;56.10;;;;;;5112917;28;20278;-62
2023/01/26 11:03:19;;;;;;;5.57;2.60;;;22.00;56.00;;;;;;5112212;28;20336;-63
2023/01/26 11:06:13;;;;;;;6.45;3.03;;;22.00;56.00;;;;;;5113881;28;20600;-63
2023/01/26 11:09:16;;;;;;;5.25;2.38;;;22.10;56.00;;;;;;5112597;28;20194;-63
2023/01/26 11:12:05;;;;;;;6.35;3.03;;;22.10;55.80;;;;;;5102389;28;20196;-62
2023/01/26 11:15:02;;;;;;;5.57;2.15;;;22.10;55.70;;;;;;5091780;28;20211;-63
2023/01/26 11:18:00;;;;;;;2.78;2.15;;;22.10;55.60;;;;;;5103509;28;20574;-63
2023/01/26 11:20:54;;;;;;;3.70;2.65;;;22.10;55.60;;;;;;5112058;28;20227;-63
2023/01/26 11:23:51;;;;;;;4.35;3.05;;;22.00;59.00;;;;;;5112684;28;20279;-63
2023/01/26 11:27:09;;;;;;;5.40;2.13;;;22.00;55.70;;;;;;5112860;28;20210;-63
2023/01/26 11:30:15;;;;;;;5.30;2.55;;;22.00;55.70;;;;;;5090748;28;20208;-63
2023/01/26 11:33:15;;;;;;;3.60;2.50;;;22.00;55.70;;;;;;5106672;28;20277;-63
2023/01/26 11:36:12;;;;;;;7.45;2.95;;;21.90;55.60;;;;;;5095692;28;20680;-62
2023/01/26 11:39:07;;;;;;;5.25;2.33;;;21.90;55.70;;;;;;5096021;28;20200;-63
2023/01/26 11:42:08;;;;;;;12.50;3.10;;;21.90;55.80;;;;;;5103552;28;20570;-63
2023/01/26 11:45:17;;;;;;;6.50;2.15;;;21.90;55.80;;;;;;5096090;28;20220;-64
2023/01/26 11:48:17;;;;;;;12.52;2.47;;;21.90;55.70;;;;;;5095640;28;20204;-63
2023/01/26 11:51:11;;;;;;;4.32;2.53;;;21.90;55.90;;;;;;5096470;28;20199;-63
2023/01/26 11:54:15;;;;;;;5.75;2.50;;;22.00;55.90;;;;;;5098699;28;20228;-63
2023/01/26 11:57:10;;;;;;;4.07;2.60;;;22.00;55.70;;;;;;5114352;28;20377;-63
2023/01/26 12:00:02;;;;;;;6.57;2.33;;;22.00;55.60;;;;;;5105120;28;20206;-63
2023/01/26 12:02:59;;;;;;;3.83;2.08;;;22.00;55.50;;;;;;5108131;28;20192;-63
2023/01/26 12:05:51;;;;;;;5.78;2.35;;;22.10;55.50;;;;;;5115330;28;20231;-63
2023/01/26 12:08:41;;;;;;;4.20;2.45;;;22.10;55.50;;;;;;5116348;28;20735;-63
2023/01/26 12:11:34;;;;;;;6.55;2.10;;;22.10;55.50;;;;;;5114226;28;20212;-63
2023/01/26 12:14:28;;;;;;;6.80;2.15;;;22.10;55.60;;;;;;5103670;28;20273;-63
2023/01/26 12:17:27;;;;;;;2.65;1.90;;;22.00;55.50;;;;;;5097663;28;20206;-64
2023/01/26 12:20:34;;;;;;;19.80;3.10;;;22.00;56.00;;;;;;5114238;28;20202;-63
2023/01/26 12:23:32;;;;;;;641.90;83.35;;;22.00;55.40;;;;;;5115887;28;20199;-63
2023/01/26 12:26:22;;;;;;;431.20;56.10;;;22.00;55.50;;;;;;5115712;28;20286;-64
2023/01/26 12:29:16;;;;;;;321.70;33.58;;;21.90;55.50;;;;;;5113834;28;20243;-63
2023/01/26 12:32:09;;;;;;;140.90;19.23;;;21.90;55.60;;;;;;5106307;28;20203;-63
2023/01/26 12:34:58;;;;;;;59.85;9.27;;;21.80;55.60;;;;;;5102543;28;20320;-63
2023/01/26 12:37:57;;;;;;;47.72;9.30;;;21.80;56.00;;;;;;5093742;28;20597;-63
2023/01/26 12:41:10;;;;;;;45.53;7.35;;;21.90;55.90;;;;;;5095313;28;20699;-64
2023/01/26 12:44:17;;;;;;;21.20;4.68;;;21.90;55.90;;;;;;5093641;28;20224;-62
2023/01/26 12:47:14;;;;;;;21.77;3.92;;;21.90;55.90;;;;;;5095561;28;20241;-62
2023/01/26 12:50:08;;;;;;;17.42;4.00;;;21.90;55.80;;;;;;5095092;28;20662;-63
2023/01/26 12:53:05;;;;;;;18.80;4.97;;;22.00;56.20;;;;;;5094397;28;20350;-63
2023/01/26 12:55:58;;;;;;;15.18;4.50;;;22.00;56.00;;;;;;5094964;28;20722;-63
2023/01/26 12:58:49;;;;;;;15.75;4.50;;;22.00;55.70;;;;;;5094804;28;20220;-63
2023/01/26 13:01:40;;;;;;;13.20;3.78;;;22.00;55.70;;;;;;5093980;28;20224;-63
2023/01/26 13:04:28;;;;;;;13.48;3.55;;;22.00;55.60;;;;;;5093537;28;20263;-64
2023/01/26 13:07:30;;;;;;;14.90;4.03;;;22.00;55.60;;;;;;5093592;28;20195;-63
2023/01/26 13:10:42;;;;;;;11.18;2.65;;;22.10;55.60;;;;;;5094192;28;20191;-63
2023/01/26 13:13:32;;;;;;;11.57;2.90;;;22.00;55.60;;;;;;5092333;28;20203;-64
2023/01/26 13:16:34;;;;;;;12.05;4.10;;;22.10;55.50;;;;;;5092488;28;20207;-63
2023/01/26 13:19:35;;;;;;;11.35;3.35;;;22.10;55.50;;;;;;5093919;28;20272;-63
2023/01/26 13:22:41;;;;;;;11.70;3.40;;;22.10;55.50;;;;;;5095399;28;20322;-62
2023/01/26 13:25:32;;;;;;;12.90;3.33;;;22.00;55.50;;;;;;5094409;28;20303;-62
2023/01/26 13:28:28;;;;;;;8.40;2.65;;;22.00;55.60;;;;;;5093664;28;20664;-63
2023/01/26 13:31:31;;;;;;;13.02;3.78;;;22.00;55.50;;;;;;5093230;28;20282;-63
2023/01/26 13:34:25;;;;;;;10.02;2.83;;;22.00;55.60;;;;;;5092816;28;20247;-64
2023/01/26 13:37:19;;;;;;;8.82;2.60;;;22.00;55.70;;;;;;5093315;28;20208;-63
2023/01/26 13:40:21;;;;;;;7.53;2.80;;;22.00;55.50;;;;;;5092525;28;20212;-64
2023/01/26 13:43:16;;;;;;;6.65;2.78;;;22.00;55.50;;;;;;5093666;28;20578;-64
2023/01/26 13:46:22;;;;;;;9.95;2.40;;;21.90;55.50;;;;;;5093831;28;20243;-63
2023/01/26 13:49:24;;;;;;;5.20;2.58;;;22.00;55.60;;;;;;5093466;28;20571;-63
2023/01/26 13:52:17;;;;;;;6.28;2.47;;;22.00;55.70;;;;;;5093800;28;20195;-63
2023/01/26 13:55:19;;;;;;;8.00;3.00;;;22.00;55.60;;;;;;5094404;28;20273;-63
2023/01/26 13:58:13;;;;;;;14.35;3.20;;;22.00;55.50;;;;;;5093988;28;20203;-64
2023/01/26 14:01:03;;;;;;;5.97;2.30;;;22.00;55.50;;;;;;5091315;28;20238;-64
2023/01/26 14:04:03;;;;;;;8.50;2.38;;;21.80;58.30;;;;;;5089624;28;20199;-63
2023/01/26 14:06:55;;;;;;;9.63;2.72;;;22.00;55.60;;;;;;5091436;28;20232;-63
2023/01/26 14:09:46;;;;;;;4.50;2.40;;;22.00;55.40;;;;;;5090631;28;20208;-63
2023/01/26 14:12:41;;;;;;;6.55;2.35;;;22.00;55.30;;;;;;5091333;28;20200;-64
2023/01/26 14:15:32;;;;;;;5.78;2.72;;;22.00;55.10;;;;;;5089270;28;20697;-64
2023/01/26 14:18:21;;;;;;;5.55;2.50;;;22.00;55.20;;;;;;5092361;28;20249;-63
2023/01/26 14:21:17;;;;;;;5.68;2.45;;;22.00;55.10;;;;;;5092411;28;20570;-63
2023/01/26 14:24:09;;;;;;;6.57;3.22;;;22.00;55.10;;;;;;5092308;28;20303;-64
2023/01/26 14:26:57;;;;;;;6.57;2.53;;;22.00;55.20;;;;;;5092375;28;20714;-63
2023/01/26 14:29:46;;;;;;;5.18;2.85;;;21.90;55.10;;;;;;5092573;28;20207;-64
2023/01/26 14:32:36;;;;;;;5.57;3.88;;;21.90;55.10;;;;;;5091993;28;20199;-63
2023/01/26 14:35:25;;;;;;;7.22;2.90;;;21.90;55.20;;;;;;5092877;28;20611;-62
2023/01/26 14:38:18;;;;;;;5.00;2.50;;;21.80;55.20;;;;;;5091724;28;20199;-63
2023/01/26 14:41:12;;;;;;;5.25;2.33;;;21.80;55.30;;;;;;5111279;28;20315;-63
2023/01/26 14:44:02;;;;;;;4.97;2.72;;;21.80;55.30;;;;;;5112474;28;20357;-63
2023/01/26 14:46:56;;;;;;;11.82;3.10;;;21.80;55.30;;;;;;5113191;28;20223;-64
2023/01/26 14:49:49;;;;;;;5.68;2.75;;;21.90;55.40;;;;;;5111386;28;20224;-63
2023/01/26 14:52:40;;;;;;;5.20;2.75;;;21.90;55.30;;;;;;5112927;28;20201;-63
2023/01/26 14:55:31;;;;;;;4.57;2.33;;;21.90;55.30;;;;;;5112448;28;20648;-63
2023/01/26 14:58:23;;;;;;;6.22;2.78;;;22.00;55.40;;;;;;5096083;28;20207;-64
2023/01/26 15:01:21;;;;;;;4.00;2.00;;;22.00;55.20;;;;;;5087034;28;20302;-63
2023/01/26 15:04:24;;;;;;;7.15;3.22;;;22.00;55.70;;;;;;5093209;28;20216;-64
2023/01/26 15:07:31;;;;;;;9.77;2.83;;;22.00;55.00;;;;;;5104657;28;20215;-63
2023/01/26 15:10:41;;;;;;;4.75;2.63;;;22.00;55.00;;;;;;5116588;28;20209;-63
2023/01/26 15:13:31;;;;;;;8.27;3.55;;;22.00;55.00;;;;;;5113759;28;20210;-63
2023/01/26 15:16:21;;;;;;;5.72;2.83;;;22.00;55.00;;;;;;5117093;28;20278;-63
2023/01/26 15:19:23;;;;;;;8.48;3.10;;;21.90;54.90;;;;;;5116779;28;20286;-63
2023/01/26 15:22:20;;;;;;;5.72;2.63;;;21.90;54.90;;;;;;5116378;28;20206;-64
2023/01/26 15:25:20;;;;;;;10.77;3.40;;;21.90;55.10;;;;;;5117266;28;20218;-63
2023/01/26 15:28:17;;;;;;;3.67;2.25;;;21.90;55.00;;;;;;5095743;28;20192;-63
2023/01/26 15:31:05;;;;;;;5.55;2.75;;;21.90;55.50;;;;;;5097062;28;20275;-63
2023/01/26 15:33:55;;;;;;;3.28;2.40;;;21.60;58.60;;;;;;5095536;28;20282;-63
2023/01/26 15:36:50;;;;;;;4.15;2.78;;;21.80;55.10;;;;;;5097254;28;20204;-63
2023/01/26 15:39:38;;;;;;;3.97;2.67;;;21.80;55.00;;;;;;5096463;28;20198;-62